createdAt,value
2019-01-27T00:00:05.836Z,99228.89
2019-01-27T00:02:34.772Z,99228.67
2019-01-27T00:05:04.138Z,99214.36
2019-01-27T00:07:32.564Z,99216.64
2019-01-27T00:10:01.256Z,99216.02
2019-01-27T00:12:29.826Z,99207.23
2019-01-27T00:14:58.520Z,99205.98
2019-01-27T00:17:26.979Z,99199.29
2019-01-27T00:19:55.533Z,99193.03
2019-01-27T00:22:24.146Z,99187.31
2019-01-27T00:24:52.565Z,99187.68
2019-01-27T00:27:21.086Z,99177.06
2019-01-27T00:29:49.732Z,99173.73
2019-01-27T00:32:18.430Z,99163.84
2019-01-27T00:34:46.906Z,99163.34
2019-01-27T00:37:15.432Z,99162.35
2019-01-27T00:39:44.352Z,99156.88
2019-01-27T00:42:12.888Z,99156.41
2019-01-27T00:44:43.674Z,99146.32
2019-01-27T00:47:12.506Z,99138.44
2019-01-27T00:49:41.381Z,99137.42
2019-01-27T00:52:10.124Z,99136.77
2019-01-27T00:54:38.643Z,99121.92
2019-01-27T00:57:07.113Z,99103.98
2019-01-27T00:59:36.077Z,99105.14
2019-01-27T01:02:05.006Z,99104.86
2019-01-27T01:04:33.730Z,99100.52
2019-01-27T01:07:02.521Z,99094.04
2019-01-27T01:09:31.038Z,99103.50
2019-01-27T01:11:59.851Z,99095.20
2019-01-27T01:14:28.512Z,99092.09
2019-01-27T01:16:57.508Z,99084.64
2019-01-27T01:19:27.154Z,99086.24
2019-01-27T01:21:55.830Z,99077.39
2019-01-27T01:24:24.727Z,99082.80
2019-01-27T01:26:53.235Z,99082.97
2019-01-27T01:29:21.827Z,99079.06
2019-01-27T01:31:50.675Z,99070.44
2019-01-27T01:34:19.209Z,99070.48
2019-01-27T01:36:47.775Z,99067.68
2019-01-27T01:39:16.427Z,99060.41
2019-01-27T01:41:44.978Z,99051.72
2019-01-27T01:44:13.639Z,99052.95
2019-01-27T01:46:42.700Z,99047.45
2019-01-27T01:49:11.115Z,99041.43
2019-01-27T01:51:39.814Z,99032.98
2019-01-27T01:54:08.373Z,99025.34
2019-01-27T01:56:38.645Z,99026.14
2019-01-27T01:59:07.202Z,99021.66
2019-01-27T02:01:36.286Z,99013.13
2019-01-27T02:04:05.230Z,99011.78
2019-01-27T02:06:33.967Z,99007.73
2019-01-27T02:09:06.271Z,98997.11
2019-01-27T02:11:34.843Z,98998.31
2019-01-27T02:14:03.952Z,98990.77
2019-01-27T02:16:34.430Z,98980.59
2019-01-27T02:19:03.364Z,98975.89
2019-01-27T02:21:33.589Z,98966.80
2019-01-27T02:24:02.317Z,98964.89
2019-01-27T02:26:30.867Z,98957.39
2019-01-27T02:28:59.407Z,98956.50
2019-01-27T02:31:28.037Z,98949.97
2019-01-27T02:33:56.509Z,98937.44
2019-01-27T02:36:25.728Z,98932.03
2019-01-27T02:38:54.196Z,98926.44
2019-01-27T02:41:23.180Z,98922.66
2019-01-27T02:43:51.752Z,98914.14
2019-01-27T02:46:20.284Z,98911.28
2019-01-27T02:48:48.967Z,98904.02
2019-01-27T02:51:17.683Z,98899.08
2019-01-27T02:53:46.195Z,98892.23
2019-01-27T02:56:14.796Z,98879.42
2019-01-27T02:58:43.325Z,98878.66
2019-01-27T03:01:11.799Z,98871.83
2019-01-27T03:03:40.352Z,98861.56
2019-01-27T03:06:37.428Z,98863.52
2019-01-27T03:09:16.711Z,98863.56
2019-01-27T03:11:49.145Z,98854.06
2019-01-27T03:14:19.426Z,98845.26
2019-01-27T03:16:49.229Z,98843.63
2019-01-27T03:19:18.243Z,98838.70
2019-01-27T03:21:46.731Z,98836.03
2019-01-27T03:24:15.706Z,98825.38
2019-01-27T03:26:44.227Z,98823.41
2019-01-27T03:29:12.910Z,98820.05
2019-01-27T03:31:41.524Z,98814.41
2019-01-27T03:34:10.227Z,98810.73
2019-01-27T03:36:38.877Z,98804.39
2019-01-27T03:39:12.175Z,98799.59
2019-01-27T03:41:40.948Z,98800.90
2019-01-27T03:44:09.774Z,98782.80
2019-01-27T03:46:38.256Z,98784.95
2019-01-27T03:49:07.694Z,98779.65
2019-01-27T03:51:36.238Z,98771.78
2019-01-27T03:54:06.327Z,98774.13
2019-01-27T03:56:34.891Z,98775.87
2019-01-27T03:59:03.842Z,98757.17
2019-01-27T04:01:32.532Z,98752.02
2019-01-27T04:04:00.994Z,98744.75
2019-01-27T04:06:29.845Z,98742.80
2019-01-27T04:08:58.607Z,98733.37
2019-01-27T04:11:27.220Z,98726.46
2019-01-27T04:13:55.791Z,98726.50
2019-01-27T04:16:24.221Z,98722.86
2019-01-27T04:18:52.757Z,98722.33
2019-01-27T04:21:21.496Z,98719.03
2019-01-27T04:23:50.299Z,98708.86
2019-01-27T04:26:18.947Z,98701.66
2019-01-27T04:28:47.366Z,98712.50
2019-01-27T04:31:15.905Z,98704.99
2019-01-27T04:33:46.357Z,98701.02
2019-01-27T04:36:14.927Z,98699.44
2019-01-27T04:38:44.908Z,98695.65
2019-01-27T04:41:13.679Z,98699.92
2019-01-27T04:43:42.228Z,98695.46
2019-01-27T04:46:10.972Z,98683.14
2019-01-27T04:48:40.568Z,98685.66
2019-01-27T04:51:08.942Z,98683.14
2019-01-27T04:53:37.519Z,98690.59
2019-01-27T04:56:06.120Z,98689.27
2019-01-27T04:58:34.779Z,98680.06
2019-01-27T05:01:03.969Z,98680.26
2019-01-27T05:03:44.139Z,98670.39
2019-01-27T05:06:12.704Z,98670.27
2019-01-27T05:08:41.255Z,98648.77
2019-01-27T05:11:09.996Z,98651.69
2019-01-27T05:13:38.562Z,98650.94
2019-01-27T05:16:07.040Z,98644.78
2019-01-27T05:18:35.669Z,98650.02
2019-01-27T05:21:04.327Z,98638.96
2019-01-27T05:23:32.782Z,98650.59
2019-01-27T05:26:01.665Z,98641.54
2019-01-27T05:28:30.525Z,98634.59
2019-01-27T05:30:59.087Z,98623.50
2019-01-27T05:33:27.655Z,98631.67
2019-01-27T05:35:56.166Z,98624.95
2019-01-27T05:38:24.817Z,98624.50
2019-01-27T05:40:53.388Z,98621.05
2019-01-27T05:43:22.104Z,98617.43
2019-01-27T05:45:50.638Z,98603.92
2019-01-27T05:48:19.785Z,98611.84
2019-01-27T05:50:48.280Z,98608.91
2019-01-27T05:53:17.055Z,98598.70
2019-01-27T05:55:45.733Z,98590.94
2019-01-27T05:58:14.382Z,98588.83
2019-01-27T06:00:44.818Z,98583.83
2019-01-27T06:03:13.458Z,98586.21
2019-01-27T06:05:41.940Z,98576.51
2019-01-27T06:08:10.419Z,98576.34
2019-01-27T06:10:39.030Z,98577.16
2019-01-27T06:13:07.564Z,98576.56
2019-01-27T06:15:36.153Z,98565.94
2019-01-27T06:18:05.159Z,98554.55
2019-01-27T06:20:34.071Z,98550.31
2019-01-27T06:23:02.697Z,98544.91
2019-01-27T06:25:31.266Z,98541.08
2019-01-27T06:27:59.874Z,98553.06
2019-01-27T06:30:28.670Z,98550.36
2019-01-27T06:33:16.735Z,98543.41
2019-01-27T06:35:45.348Z,98543.15
2019-01-27T06:38:13.783Z,98532.59
2019-01-27T06:40:42.307Z,98536.20
2019-01-27T06:43:10.903Z,98533.69
2019-01-27T06:45:39.541Z,98526.17
2019-01-27T06:48:08.031Z,98518.62
2019-01-27T06:50:36.462Z,98520.40
2019-01-27T06:53:05.771Z,98517.34
2019-01-27T06:55:34.256Z,98516.34
2019-01-27T06:58:03.213Z,98509.22
2019-01-27T07:01:10.631Z,98514.41
2019-01-27T07:04:05.049Z,98506.66
2019-01-27T07:06:46.379Z,98510.47
2019-01-27T07:09:38.741Z,98503.69
2019-01-27T07:12:27.446Z,98505.66
2019-01-27T07:15:14.038Z,98502.20
2019-01-27T07:17:58.503Z,98501.25
2019-01-27T07:20:35.742Z,98495.84
2019-01-27T07:23:36.311Z,98493.14
2019-01-27T07:26:36.435Z,98493.28
2019-01-27T07:29:27.468Z,98488.70
2019-01-27T07:32:15.988Z,98486.56
2019-01-27T07:35:09.878Z,98488.32
2019-01-27T07:38:03.720Z,98481.54
2019-01-27T07:40:54.333Z,98481.14
2019-01-27T07:43:45.162Z,98475.97
2019-01-27T07:46:22.279Z,98480.38
2019-01-27T07:49:00.724Z,98482.18
2019-01-27T07:51:47.975Z,98478.84
2019-01-27T07:54:50.969Z,98479.84
2019-01-27T07:57:34.217Z,98470.02
2019-01-27T08:00:11.858Z,98464.61
2019-01-27T08:03:11.967Z,98472.03
2019-01-27T08:05:47.331Z,98466.06
2019-01-27T08:08:28.053Z,98466.83
2019-01-27T08:11:15.337Z,98460.50
2019-01-27T08:13:55.314Z,98461.42
2019-01-27T08:16:42.403Z,98458.16
2019-01-27T08:19:45.537Z,98451.60
2019-01-27T08:22:43.841Z,98456.67
2019-01-27T08:25:34.802Z,98450.30
2019-01-27T08:28:12.488Z,98449.89
2019-01-27T08:31:15.771Z,98451.83
2019-01-27T08:34:15.767Z,98449.13
2019-01-27T08:36:52.602Z,98445.06
2019-01-27T08:39:44.781Z,98442.36
2019-01-27T08:42:35.786Z,98444.88
2019-01-27T08:45:13.794Z,98439.10
2019-01-27T08:47:42.302Z,98436.22
2019-01-27T08:50:16.882Z,98442.98
2019-01-27T08:52:45.370Z,98441.66
2019-01-27T08:55:14.871Z,98431.84
2019-01-27T08:57:43.290Z,98430.06
2019-01-27T09:00:16.749Z,98426.85
2019-01-27T09:03:07.356Z,98422.78
2019-01-27T09:05:58.074Z,98417.94
2019-01-27T09:08:38.799Z,98420.07
2019-01-27T09:11:32.860Z,98420.59
2019-01-27T09:14:22.818Z,98416.53
2019-01-27T09:17:09.719Z,98420.56
2019-01-27T09:19:45.444Z,98409.32
2019-01-27T09:22:32.547Z,98413.20
2019-01-27T09:25:20.839Z,98407.57
2019-01-27T09:28:07.177Z,98407.80
2019-01-27T09:30:43.300Z,98406.08
2019-01-27T09:33:24.218Z,98408.59
2019-01-27T09:36:13.354Z,98406.48
2019-01-27T09:39:01.505Z,98408.03
2019-01-27T09:41:52.402Z,98401.86
2019-01-27T09:44:37.134Z,98399.16
2019-01-27T09:47:18.729Z,98398.25
2019-01-27T09:50:09.280Z,98393.80
2019-01-27T09:52:55.972Z,98396.33
2019-01-27T09:55:53.498Z,98394.19
2019-01-27T09:58:56.420Z,98391.09
2019-01-27T10:01:51.877Z,98393.61
2019-01-27T10:04:40.486Z,98390.70
2019-01-27T10:07:37.612Z,98394.20
2019-01-27T10:10:33.345Z,98395.95
2019-01-27T10:13:20.093Z,98391.33
2019-01-27T10:16:20.036Z,98396.73
2019-01-27T10:19:08.339Z,98395.95
2019-01-27T10:22:08.245Z,98393.82
2019-01-27T10:25:00.779Z,98390.72
2019-01-27T10:28:00.934Z,98387.62
2019-01-27T10:30:58.039Z,98390.33
2019-01-27T10:33:49.461Z,98376.04
2019-01-27T10:36:32.559Z,98375.07
2019-01-27T10:39:19.223Z,98380.28
2019-01-27T10:42:06.127Z,98369.83
2019-01-27T10:44:53.050Z,98370.05
2019-01-27T10:47:39.925Z,98366.92
2019-01-27T10:50:30.315Z,98366.91
2019-01-27T10:53:21.031Z,98362.10
2019-01-27T10:55:58.359Z,98360.76
2019-01-27T10:58:48.929Z,98354.95
2019-01-27T11:01:31.774Z,98347.22
2019-01-27T11:04:11.622Z,98351.67
2019-01-27T11:06:59.856Z,98353.21
2019-01-27T11:10:03.278Z,98345.11
2019-01-27T11:12:51.190Z,98341.23
2019-01-27T11:15:38.727Z,98345.29
2019-01-27T11:18:25.766Z,98334.64
2019-01-27T11:21:19.675Z,98341.22
2019-01-27T11:24:05.074Z,98339.86
2019-01-27T11:26:47.485Z,98336.01
2019-01-27T11:29:33.968Z,98331.34
2019-01-27T11:32:31.070Z,98329.24
2019-01-27T11:35:31.026Z,98326.33
2019-01-27T11:38:19.072Z,98322.26
2019-01-27T11:41:10.070Z,98312.02
2019-01-27T11:43:58.296Z,98307.58
2019-01-27T11:47:01.578Z,98305.45
2019-01-27T11:49:52.817Z,98307.95
2019-01-27T11:52:26.039Z,98301.97
2019-01-27T11:54:54.532Z,98298.28
2019-01-27T11:57:23.052Z,98297.50
2019-01-27T11:59:51.655Z,98298.68
2019-01-27T12:02:20.217Z,98292.29
2019-01-27T12:04:48.878Z,98286.27
2019-01-27T12:07:17.384Z,98290.53
2019-01-27T12:09:45.856Z,98288.61
2019-01-27T12:12:14.717Z,98289.00
2019-01-27T12:14:43.249Z,98283.58
2019-01-27T12:17:11.930Z,98288.02
2019-01-27T12:19:40.492Z,98286.28
2019-01-27T12:22:09.220Z,98286.09
2019-01-27T12:24:37.835Z,98281.84
2019-01-27T12:27:06.293Z,98278.55
2019-01-27T12:29:35.463Z,98269.66
2019-01-27T12:32:04.223Z,98269.66
2019-01-27T12:34:32.773Z,98267.31
2019-01-27T12:37:01.779Z,98260.37
2019-01-27T12:39:30.668Z,98263.09
2019-01-27T12:41:59.574Z,98260.17
2019-01-27T12:44:27.936Z,98261.52
2019-01-27T12:46:56.478Z,98254.16
2019-01-27T12:49:25.245Z,98252.23
2019-01-27T12:51:53.802Z,98261.91
2019-01-27T12:54:22.502Z,98255.31
2019-01-27T12:56:51.323Z,98255.48
2019-01-27T12:59:21.620Z,98257.41
2019-01-27T13:01:51.610Z,98255.66
2019-01-27T13:04:22.310Z,98254.33
2019-01-27T13:06:50.874Z,98259.14
2019-01-27T13:09:20.357Z,98256.83
2019-01-27T13:11:48.944Z,98259.36
2019-01-27T13:14:17.620Z,98256.07
2019-01-27T13:16:47.149Z,98250.44
2019-01-27T13:19:15.963Z,98246.98
2019-01-27T13:21:44.415Z,98247.17
2019-01-27T13:24:13.001Z,98247.19
2019-01-27T13:26:41.590Z,98241.73
2019-01-27T13:29:11.769Z,98240.77
2019-01-27T13:31:40.306Z,98248.87
2019-01-27T13:34:08.891Z,98243.84
2019-01-27T13:36:38.451Z,98241.48
2019-01-27T13:39:08.398Z,98244.22
2019-01-27T13:41:38.285Z,98228.14
2019-01-27T13:44:07.209Z,98235.89
2019-01-27T13:46:35.879Z,98232.63
2019-01-27T13:49:04.823Z,98237.47
2019-01-27T13:51:33.455Z,98229.73
2019-01-27T13:54:02.049Z,98220.22
2019-01-27T13:56:31.374Z,98228.52
2019-01-27T13:59:00.441Z,98227.75
2019-01-27T14:01:29.309Z,98229.48
2019-01-27T14:03:58.015Z,98225.05
2019-01-27T14:06:27.161Z,98227.72
2019-01-27T14:08:56.330Z,98223.41
2019-01-27T14:11:25.264Z,98229.59
2019-01-27T14:13:53.726Z,98229.05
2019-01-27T14:16:22.531Z,98223.61
2019-01-27T14:18:51.160Z,98223.84
2019-01-27T14:21:19.775Z,98222.70
2019-01-27T14:23:48.340Z,98222.30
2019-01-27T14:26:18.141Z,98228.90
2019-01-27T14:28:47.394Z,98222.70
2019-01-27T14:31:16.285Z,98223.86
2019-01-27T14:33:45.183Z,98217.64
2019-01-27T14:36:13.871Z,98227.42
2019-01-27T14:38:42.771Z,98217.91
2019-01-27T14:41:11.779Z,98230.48
2019-01-27T14:43:40.441Z,98227.41
2019-01-27T14:46:09.283Z,98224.84
2019-01-27T14:48:38.143Z,98224.06
2019-01-27T14:51:06.705Z,98234.20
2019-01-27T14:53:35.352Z,98230.92
2019-01-27T14:56:04.097Z,98234.23
2019-01-27T14:58:33.449Z,98235.37
2019-01-27T15:01:02.425Z,98237.69
2019-01-27T15:03:31.333Z,98239.06
2019-01-27T15:06:00.076Z,98238.66
2019-01-27T15:08:29.002Z,98242.73
2019-01-27T15:10:57.911Z,98244.30
2019-01-27T15:13:27.541Z,98245.08
2019-01-27T15:15:56.285Z,98235.02
2019-01-27T15:18:25.536Z,98239.48
2019-01-27T15:21:07.109Z,98245.28
2019-01-27T15:23:36.141Z,98240.47
2019-01-27T15:26:04.929Z,98248.19
2019-01-27T15:28:33.646Z,98247.98
2019-01-27T15:31:02.086Z,98252.84
2019-01-27T15:33:30.620Z,98251.48
2019-01-27T15:35:59.158Z,98253.81
2019-01-27T15:38:28.241Z,98255.55
2019-01-27T15:40:56.899Z,98253.80
2019-01-27T15:43:25.552Z,98261.15
2019-01-27T15:45:54.110Z,98264.85
2019-01-27T15:48:22.803Z,98264.85
2019-01-27T15:50:51.590Z,98263.86
2019-01-27T15:53:21.867Z,98267.35
2019-01-27T15:55:50.286Z,98271.03
2019-01-27T15:58:18.974Z,98267.94
2019-01-27T16:00:47.970Z,98269.86
2019-01-27T16:03:16.580Z,98274.14
2019-01-27T16:05:45.114Z,98279.16
2019-01-27T16:08:13.850Z,98277.81
2019-01-27T16:10:42.315Z,98282.26
2019-01-27T16:13:11.218Z,98279.34
2019-01-27T16:15:39.645Z,98283.03
2019-01-27T16:18:09.052Z,98288.63
2019-01-27T16:20:37.414Z,98295.97
2019-01-27T16:23:19.699Z,98286.70
2019-01-27T16:25:48.536Z,98292.48
2019-01-27T16:28:17.324Z,98297.11
2019-01-27T16:31:01.780Z,98292.89
2019-01-27T16:33:36.974Z,98298.67
2019-01-27T16:36:05.806Z,98300.81
2019-01-27T16:38:34.663Z,98301.98
2019-01-27T16:41:03.621Z,98302.34
2019-01-27T16:43:32.189Z,98307.19
2019-01-27T16:46:00.565Z,98302.95
2019-01-27T16:48:29.425Z,98306.02
2019-01-27T16:50:59.637Z,98310.08
2019-01-27T16:53:28.038Z,98307.58
2019-01-27T16:55:56.766Z,98311.04
2019-01-27T16:58:26.100Z,98308.16
2019-01-27T17:00:55.471Z,98313.75
2019-01-27T17:03:24.644Z,98311.64
2019-01-27T17:05:53.348Z,98312.21
2019-01-27T17:08:21.851Z,98307.77
2019-01-27T17:10:50.755Z,98312.61
2019-01-27T17:13:19.462Z,98317.23
2019-01-27T17:15:48.047Z,98314.53
2019-01-27T17:18:16.808Z,98317.05
2019-01-27T17:20:45.373Z,98319.94
2019-01-27T17:23:13.901Z,98324.96
2019-01-27T17:25:43.608Z,98324.00
2019-01-27T17:28:12.346Z,98322.25
2019-01-27T17:30:41.030Z,98324.39
2019-01-27T17:33:10.096Z,98334.25
2019-01-27T17:35:38.834Z,98327.88
2019-01-27T17:38:08.043Z,98336.00
2019-01-27T17:40:36.696Z,98336.17
2019-01-27T17:43:05.265Z,98331.94
2019-01-27T17:45:33.830Z,98341.59
2019-01-27T17:48:02.760Z,98345.25
2019-01-27T17:50:31.475Z,98339.61
2019-01-27T17:53:00.228Z,98342.48
2019-01-27T17:55:38.959Z,98346.91
2019-01-27T17:58:42.075Z,98349.56
2019-01-27T18:01:38.746Z,98356.50
2019-01-27T18:04:35.911Z,98363.41
2019-01-27T18:07:29.902Z,98372.48
2019-01-27T18:10:16.656Z,98377.28
2019-01-27T18:12:53.041Z,98383.08
2019-01-27T18:15:21.749Z,98390.80
2019-01-27T18:17:50.774Z,98391.77
2019-01-27T18:20:19.736Z,98389.47
2019-01-27T18:22:48.372Z,98404.33
2019-01-27T18:25:16.984Z,98401.08
2019-01-27T18:27:45.558Z,98405.66
2019-01-27T18:30:21.139Z,98412.62
2019-01-27T18:32:49.845Z,98416.25
2019-01-27T18:35:18.611Z,98415.84
2019-01-27T18:37:47.100Z,98423.64
2019-01-27T18:40:16.297Z,98424.76
2019-01-27T18:42:44.945Z,98429.78
2019-01-27T18:45:17.336Z,98428.77
2019-01-27T18:47:47.501Z,98428.77
2019-01-27T18:50:19.290Z,98431.26
2019-01-27T18:52:51.881Z,98433.50
2019-01-27T18:55:43.769Z,98442.03
2019-01-27T18:58:27.872Z,98443.34
2019-01-27T19:01:12.530Z,98445.31
2019-01-27T19:04:03.661Z,98453.22
2019-01-27T19:06:48.958Z,98449.41
2019-01-27T19:09:55.282Z,98453.20
2019-01-27T19:12:31.280Z,98467.09
2019-01-27T19:15:10.350Z,98463.06
2019-01-27T19:17:46.465Z,98467.83
2019-01-27T19:20:40.505Z,98471.66
2019-01-27T19:23:30.234Z,98467.39
2019-01-27T19:26:27.139Z,98475.13
2019-01-27T19:29:18.235Z,98480.12
2019-01-27T19:32:14.904Z,98482.72
2019-01-27T19:35:07.184Z,98486.52
2019-01-27T19:37:55.679Z,98495.27
2019-01-27T19:40:46.958Z,98497.42
2019-01-27T19:43:40.607Z,98504.52
2019-01-27T19:46:43.965Z,98511.92
2019-01-27T19:49:23.160Z,98505.67
2019-01-27T19:52:11.811Z,98511.83
2019-01-27T19:55:00.583Z,98521.63
2019-01-27T19:57:38.783Z,98516.87
2019-01-27T20:00:25.458Z,98523.09
2019-01-27T20:03:16.340Z,98528.53
2019-01-27T20:05:58.159Z,98528.08
2019-01-27T20:08:52.761Z,98529.02
2019-01-27T20:11:39.541Z,98532.73
2019-01-27T20:14:29.811Z,98544.61
2019-01-27T20:17:05.107Z,98543.03
2019-01-27T20:19:58.141Z,98550.14
2019-01-27T20:22:35.507Z,98540.63
2019-01-27T20:25:23.724Z,98546.32
2019-01-27T20:28:11.098Z,98549.02
2019-01-27T20:30:52.989Z,98550.32
2019-01-27T20:33:53.522Z,98555.50
2019-01-27T20:36:37.826Z,98551.30
2019-01-27T20:39:28.543Z,98553.67
2019-01-27T20:42:25.330Z,98554.94
2019-01-27T20:45:12.754Z,98563.07
2019-01-27T20:48:13.327Z,98563.39
2019-01-27T20:50:55.348Z,98567.41
2019-01-27T20:53:29.322Z,98564.89
2019-01-27T20:56:17.569Z,98567.60
2019-01-27T20:59:15.045Z,98561.75
2019-01-27T21:02:07.203Z,98561.73
2019-01-27T21:04:43.052Z,98560.58
2019-01-27T21:07:31.368Z,98561.64
2019-01-27T21:10:25.130Z,98567.33
2019-01-27T21:13:11.619Z,98573.17
2019-01-27T21:15:58.927Z,98569.73
2019-01-27T21:18:41.412Z,98572.47
2019-01-27T21:21:10.377Z,98571.73
2019-01-27T21:23:39.030Z,98572.09
2019-01-27T21:26:07.619Z,98576.00
2019-01-27T21:28:36.331Z,98580.00
2019-01-27T21:31:04.850Z,98587.77
2019-01-27T21:33:33.635Z,98584.84
2019-01-27T21:36:02.235Z,98590.09
2019-01-27T21:38:30.856Z,98588.94
2019-01-27T21:40:59.272Z,98590.19
2019-01-27T21:43:27.888Z,98587.87
2019-01-27T21:45:56.670Z,98588.70
2019-01-27T21:48:26.482Z,98588.38
2019-01-27T21:50:55.541Z,98590.87
2019-01-27T21:53:24.196Z,98591.29
2019-01-27T21:55:53.523Z,98596.28
2019-01-27T21:58:22.116Z,98592.27
2019-01-27T22:00:50.672Z,98590.89
2019-01-27T22:03:19.185Z,98596.31
2019-01-27T22:05:47.669Z,98596.09
2019-01-27T22:08:16.187Z,98602.88
2019-01-27T22:10:45.009Z,98595.72
2019-01-27T22:13:13.520Z,98597.53
2019-01-27T22:15:41.899Z,98598.34
2019-01-27T22:18:10.489Z,98600.84
2019-01-27T22:20:39.077Z,98599.40
2019-01-27T22:23:08.180Z,98599.91
2019-01-27T22:25:37.160Z,98604.28
2019-01-27T22:28:05.663Z,98606.14
2019-01-27T22:30:34.229Z,98609.06
2019-01-27T22:33:02.696Z,98604.38
2019-01-27T22:35:31.152Z,98609.87
2019-01-27T22:37:59.722Z,98609.77
2019-01-27T22:40:28.326Z,98608.22
2019-01-27T22:42:56.759Z,98602.75
2019-01-27T22:45:25.386Z,98609.54
2019-01-27T22:47:54.041Z,98618.02
2019-01-27T22:50:22.620Z,98617.52
2019-01-27T22:52:51.034Z,98613.28
2019-01-27T22:55:19.927Z,98611.51
2019-01-27T22:57:48.420Z,98620.09
2019-01-27T23:00:34.408Z,98617.96
2019-01-27T23:03:03.999Z,98615.83
2019-01-27T23:05:32.715Z,98614.13
2019-01-27T23:08:01.168Z,98617.48
2019-01-27T23:10:29.841Z,98614.37
2019-01-27T23:12:58.290Z,98615.52
2019-01-27T23:15:27.017Z,98619.86
2019-01-27T23:17:55.561Z,98618.09
2019-01-27T23:20:28.633Z,98614.86
2019-01-27T23:22:57.495Z,98622.09
2019-01-27T23:25:26.368Z,98615.86
2019-01-27T23:27:54.733Z,98621.03
2019-01-27T23:30:23.589Z,98624.79
2019-01-27T23:32:52.247Z,98626.92
2019-01-27T23:35:20.998Z,98626.44
2019-01-27T23:37:49.674Z,98625.66
2019-01-27T23:40:18.502Z,98630.53
2019-01-27T23:42:47.124Z,98629.25
2019-01-27T23:45:15.711Z,98634.44
2019-01-27T23:47:44.304Z,98637.93
2019-01-27T23:50:13.092Z,98631.52
2019-01-27T23:52:41.636Z,98641.73
2019-01-27T23:55:10.477Z,98645.91
2019-01-27T23:57:38.893Z,98650.07
